Mackenzie, Canada
Current Conditions -  °F | °C
As of 11:00 AM on Friday 31 Oct 2014 (Local Time) from CYZY Reporting Station
Overcast Overcast  
Wind Chill: 28°   Ceiling: 600
Heat Index: 36°   Visibility: 9mi
Dew Point: 36°   Wind: 12mph
Humidity: 100%   Direction: 170°S
Pressure: 29.68"   Gusts: NA
Location:  55.33°N, 123.09°W
Report Text: CYZY 311800Z AUTO 17010KT 9SM OVC006 02/02 A2968 RMK SLP078
Loading
Personal Weather Stations






























Interactive Weather Map New forecast layout! Learn more

10-Day Weather Forecast

Advertisements
Track Severe Weather on mobile